createdAt,value
2022-10-19T00:01:38.375Z,99436.25
2022-10-19T00:04:07.964Z,99431.69
2022-10-19T00:06:36.818Z,99426.53
2022-10-19T00:09:12.833Z,99443.25
2022-10-19T00:11:42.305Z,99420.75
2022-10-19T00:14:11.513Z,99436.13
2022-10-19T00:16:38.428Z,99436.78
2022-10-19T00:19:08.766Z,99432.31
2022-10-19T00:21:35.744Z,99392.28
2022-10-19T00:24:02.299Z,99443.53
2022-10-19T00:26:28.956Z,99448.16
2022-10-19T00:28:56.399Z,99451.63
2022-10-19T00:31:23.805Z,99432.63
2022-10-19T00:33:50.739Z,99448.75
2022-10-19T00:36:18.576Z,99449.06
2022-10-19T00:38:45.244Z,99451.38
2022-10-19T00:41:11.955Z,99449.44
2022-10-19T00:44:01.060Z,99453.44
2022-10-19T00:46:30.566Z,99409.84
2022-10-19T00:49:12.891Z,99454.09
2022-10-19T00:51:42.131Z,99456.69
2022-10-19T00:54:09.587Z,99455.34
2022-10-19T00:56:39.576Z,99454.94
2022-10-19T00:59:07.330Z,99455.56
2022-10-19T01:01:34.650Z,99458.28
2022-10-19T01:04:01.394Z,99450.44
2022-10-19T01:06:28.325Z,99445.84
2022-10-19T01:08:54.858Z,99454.72
2022-10-19T01:11:30.194Z,99451.56
2022-10-19T01:14:08.883Z,99449.41
2022-10-19T01:16:55.416Z,99447.03
2022-10-19T01:19:44.999Z,99438.84
2022-10-19T01:22:27.047Z,99443.34
2022-10-19T01:25:01.832Z,99435.44
2022-10-19T01:27:43.856Z,99443.66
2022-10-19T01:30:34.850Z,99443.28
2022-10-19T01:33:12.723Z,99443.63
2022-10-19T01:35:50.558Z,99442.47
2022-10-19T01:38:48.079Z,99444.91
2022-10-19T01:41:27.554Z,99442.41
2022-10-19T01:44:27.852Z,99448.41
2022-10-19T01:47:02.814Z,99400.63
2022-10-19T01:49:34.159Z,99436.84
2022-10-19T01:52:05.190Z,99404.66
2022-10-19T01:54:38.327Z,99418.84
2022-10-19T01:57:08.476Z,99434.81
2022-10-19T01:59:37.260Z,99428.75
2022-10-19T02:02:07.404Z,99414.19
2022-10-19T02:04:35.474Z,99417.69
2022-10-19T02:07:04.346Z,99414.16
2022-10-19T02:09:30.958Z,99413.13
2022-10-19T02:12:01.276Z,99401.63
2022-10-19T02:14:32.870Z,99394.28
2022-10-19T02:17:05.234Z,99400.78
2022-10-19T02:19:31.811Z,99399.56
2022-10-19T02:21:58.615Z,99396.44
2022-10-19T02:24:25.373Z,99395.44
2022-10-19T02:26:53.409Z,99384.56
2022-10-19T02:29:20.633Z,99397.50
2022-10-19T02:31:47.311Z,99390.97
2022-10-19T02:34:14.324Z,99392.06
2022-10-19T02:36:41.265Z,99397.16
2022-10-19T02:39:08.768Z,99395.81
2022-10-19T02:41:42.626Z,99390.84
2022-10-19T02:44:26.281Z,99377.16
2022-10-19T02:47:02.897Z,99391.00
2022-10-19T02:49:34.094Z,99392.03
2022-10-19T02:52:06.951Z,99395.53
2022-10-19T02:54:34.334Z,99395.97
2022-10-19T02:57:00.966Z,99376.50
2022-10-19T02:59:27.570Z,99387.03
2022-10-19T03:01:54.142Z,99395.38
2022-10-19T03:04:21.128Z,99361.69
2022-10-19T03:06:47.711Z,99404.53
2022-10-19T03:09:14.305Z,99397.00
2022-10-19T03:11:40.808Z,99382.75
2022-10-19T03:14:07.490Z,99388.50
2022-10-19T03:16:33.988Z,99383.63
2022-10-19T03:19:00.540Z,99394.16
2022-10-19T03:21:27.194Z,99397.66
2022-10-19T03:23:53.770Z,99402.91
2022-10-19T03:26:20.353Z,99406.75
2022-10-19T03:28:47.170Z,99412.81
2022-10-19T03:31:13.771Z,99350.53
2022-10-19T03:33:40.337Z,99414.88
2022-10-19T03:36:28.477Z,99420.44
2022-10-19T03:39:00.660Z,99421.75
2022-10-19T03:41:33.414Z,99422.00
2022-10-19T03:46:32.208Z,99386.03
2022-10-19T03:48:58.886Z,99429.34
2022-10-19T03:51:28.239Z,99431.44
2022-10-19T03:53:57.145Z,99428.31
2022-10-19T03:56:25.853Z,99435.91
2022-10-19T03:58:54.459Z,99429.41
2022-10-19T04:01:35.728Z,99437.34
2022-10-19T04:04:05.844Z,99428.47
2022-10-19T04:06:35.370Z,99439.13
2022-10-19T04:09:03.071Z,99440.47
2022-10-19T04:11:31.100Z,99446.44
2022-10-19T04:13:58.924Z,99443.03
2022-10-19T04:16:28.756Z,99445.44
2022-10-19T04:18:55.700Z,99443.09
2022-10-19T04:21:29.321Z,99445.09
2022-10-19T04:24:08.116Z,99441.53
2022-10-19T04:26:39.288Z,99438.72
2022-10-19T04:29:05.998Z,99431.25
2022-10-19T04:31:32.571Z,99445.22
2022-10-19T04:33:59.142Z,99447.75
2022-10-19T04:36:26.582Z,99440.25
2022-10-19T04:38:53.153Z,99445.47
2022-10-19T04:41:21.436Z,99443.28
2022-10-19T04:43:49.170Z,99439.88
2022-10-19T04:46:18.609Z,99446.63
2022-10-19T04:48:46.970Z,99449.47
2022-10-19T04:51:14.040Z,99446.22
2022-10-19T04:53:42.111Z,99450.16
2022-10-19T04:56:12.288Z,99449.16
2022-10-19T04:58:38.960Z,99451.81
2022-10-19T05:01:10.873Z,99447.75
2022-10-19T05:03:37.858Z,99436.53
2022-10-19T05:06:04.852Z,99448.81
2022-10-19T05:08:32.487Z,99413.63
2022-10-19T05:11:18.552Z,99450.16
2022-10-19T05:13:46.023Z,99445.94
2022-10-19T05:16:16.097Z,99447.25
2022-10-19T05:18:42.725Z,99416.50
2022-10-19T05:21:13.888Z,99445.13
2022-10-19T05:23:41.687Z,99450.41
2022-10-19T05:26:12.126Z,99446.59
2022-10-19T05:28:38.921Z,99438.84
2022-10-19T05:31:11.019Z,99441.47
2022-10-19T05:33:39.212Z,99413.44
2022-10-19T05:36:24.915Z,99409.13
2022-10-19T05:38:52.632Z,99448.94
2022-10-19T05:41:20.496Z,99449.78
2022-10-19T05:43:47.697Z,99437.50
2022-10-19T05:46:16.539Z,99445.53
2022-10-19T05:48:43.880Z,99448.75
2022-10-19T05:51:13.146Z,99446.09
2022-10-19T05:53:40.301Z,99448.03
2022-10-19T05:56:09.471Z,99448.47
2022-10-19T05:58:36.187Z,99446.13
2022-10-19T06:01:03.213Z,99418.22
2022-10-19T06:03:30.103Z,99448.31
2022-10-19T06:05:58.307Z,99446.56
2022-10-19T06:08:26.436Z,99457.72
2022-10-19T06:11:04.162Z,99459.88
2022-10-19T06:13:32.656Z,99449.38
2022-10-19T06:16:00.407Z,99454.63
2022-10-19T06:18:29.621Z,99455.97
2022-10-19T06:21:20.661Z,99422.44
2022-10-19T06:23:55.678Z,99464.06
2022-10-19T06:26:27.018Z,99451.41
2022-10-19T06:28:59.393Z,99474.22
2022-10-19T06:31:32.600Z,99472.88
2022-10-19T06:33:59.948Z,99468.91
2022-10-19T06:36:30.980Z,99484.13
2022-10-19T06:39:01.575Z,99474.75
2022-10-19T06:41:30.038Z,99481.13
2022-10-19T06:44:02.776Z,99485.53
2022-10-19T06:46:29.392Z,99484.34
2022-10-19T06:48:57.381Z,99493.78
2022-10-19T06:51:26.034Z,99488.47
2022-10-19T06:53:56.671Z,99490.50
2022-10-19T06:56:25.319Z,99486.56
2022-10-19T06:58:52.020Z,99491.06
2022-10-19T07:01:18.812Z,99480.09
2022-10-19T07:03:45.379Z,99489.66
2022-10-19T07:06:13.290Z,99488.81
2022-10-19T07:08:41.750Z,99486.25
2022-10-19T07:11:11.149Z,99492.03
2022-10-19T07:13:38.294Z,99492.97
2022-10-19T07:16:08.016Z,99488.34
2022-10-19T07:18:36.550Z,99453.47
2022-10-19T07:21:06.756Z,99495.97
2022-10-19T07:23:35.295Z,99483.56
2022-10-19T07:26:07.296Z,99485.28
2022-10-19T07:28:34.021Z,99491.97
2022-10-19T07:31:05.990Z,99493.72
2022-10-19T07:33:32.843Z,99490.13
2022-10-19T07:36:01.700Z,99473.47
2022-10-19T07:38:30.097Z,99493.75
2022-10-19T07:41:03.002Z,99440.78
2022-10-19T07:43:29.725Z,99453.09
2022-10-19T07:46:04.542Z,99459.69
2022-10-19T07:48:31.508Z,99500.97
2022-10-19T07:51:02.643Z,99488.09
2022-10-19T07:53:29.507Z,99492.88
2022-10-19T07:55:56.043Z,99493.75
2022-10-19T07:58:22.717Z,99487.22
2022-10-19T08:00:49.439Z,99471.13
2022-10-19T08:06:05.671Z,99484.47
2022-10-19T08:08:32.746Z,99484.16
2022-10-19T08:11:07.603Z,99489.50
2022-10-19T08:13:34.826Z,99483.56
2022-10-19T08:16:01.522Z,99487.88
2022-10-19T08:18:28.559Z,99489.25
2022-10-19T08:20:55.089Z,99489.19
2022-10-19T08:23:22.255Z,99490.19
2022-10-19T08:25:49.396Z,99484.78
2022-10-19T08:28:16.260Z,99479.69
2022-10-19T08:30:42.754Z,99479.69
2022-10-19T08:33:09.451Z,99482.16
2022-10-19T08:35:36.773Z,99475.63
2022-10-19T08:38:03.342Z,99481.25
2022-10-19T08:40:30.928Z,99480.59
2022-10-19T08:43:18.361Z,99482.44
2022-10-19T08:46:15.345Z,99482.44
2022-10-19T08:48:42.430Z,99480.47
2022-10-19T08:51:12.562Z,99478.16
2022-10-19T08:53:51.058Z,99484.72
2022-10-19T08:56:45.852Z,99475.56
2022-10-19T08:59:20.388Z,99477.06
2022-10-19T09:01:55.187Z,99472.03
2022-10-19T09:04:26.044Z,99473.66
2022-10-19T09:07:16.974Z,99473.63
2022-10-19T09:09:49.302Z,99468.22
2022-10-19T09:12:24.651Z,99467.31
2022-10-19T09:15:07.579Z,99468.84
2022-10-19T09:17:34.657Z,99464.53
2022-10-19T09:20:23.533Z,99473.91
2022-10-19T09:23:07.671Z,99465.31
2022-10-19T09:25:39.362Z,99465.16
2022-10-19T09:28:20.164Z,99473.66
2022-10-19T09:30:49.929Z,99426.38
2022-10-19T09:33:32.558Z,99463.78
2022-10-19T09:36:02.386Z,99463.63
2022-10-19T09:38:29.861Z,99464.94
2022-10-19T09:41:15.609Z,99468.47
2022-10-19T09:43:46.896Z,99468.47
2022-10-19T09:46:24.830Z,99475.25
2022-10-19T09:48:52.389Z,99478.34
2022-10-19T09:51:20.719Z,99476.56
2022-10-19T09:53:54.217Z,99475.72
2022-10-19T09:56:24.054Z,99456.59
2022-10-19T09:58:53.565Z,99457.25
2022-10-19T10:01:41.421Z,99434.81
2022-10-19T10:04:14.958Z,99455.13
2022-10-19T10:06:43.653Z,99456.13
2022-10-19T10:09:17.446Z,99457.94
2022-10-19T10:11:47.952Z,99458.75
2022-10-19T10:14:21.601Z,99456.44
2022-10-19T10:16:48.413Z,99462.25
2022-10-19T10:19:16.938Z,99462.41
2022-10-19T10:21:52.818Z,99443.75
2022-10-19T10:24:21.807Z,99457.88
2022-10-19T10:26:50.982Z,99459.97
2022-10-19T10:29:28.520Z,99461.50
2022-10-19T10:32:19.316Z,99451.78
2022-10-19T10:34:52.174Z,99448.50
2022-10-19T10:37:41.564Z,99445.84
2022-10-19T10:40:29.947Z,99446.50
2022-10-19T10:43:02.282Z,99444.53
2022-10-19T10:46:04.489Z,99455.38
2022-10-19T10:48:36.338Z,99447.31
2022-10-19T10:51:10.276Z,99436.91
2022-10-19T10:53:40.132Z,99436.00
2022-10-19T10:56:21.965Z,99440.28
2022-10-19T10:58:59.665Z,99434.75
2022-10-19T11:01:35.710Z,99446.19
2022-10-19T11:04:11.006Z,99419.13
2022-10-19T11:06:47.600Z,99430.91
2022-10-19T11:09:36.630Z,99433.97
2022-10-19T11:12:09.292Z,99432.81
2022-10-19T11:14:51.144Z,99301.25
2022-10-19T11:17:41.135Z,99430.16
2022-10-19T11:20:15.001Z,99427.50
2022-10-19T11:22:57.359Z,99424.22
2022-10-19T11:25:49.309Z,99428.38
2022-10-19T11:28:21.792Z,99421.75
2022-10-19T11:30:51.406Z,99414.00
2022-10-19T11:33:49.937Z,99412.53
2022-10-19T11:36:27.851Z,99405.75
2022-10-19T11:39:16.182Z,99401.44
2022-10-19T11:42:20.930Z,99395.69
2022-10-19T11:45:05.737Z,99399.16
2022-10-19T11:48:12.764Z,99390.53
2022-10-19T11:50:58.931Z,99386.28
2022-10-19T11:54:14.574Z,99378.94
2022-10-19T11:57:06.366Z,99371.06
2022-10-19T12:00:08.307Z,99374.63
2022-10-19T12:03:14.852Z,99368.03
2022-10-19T12:05:41.388Z,99369.00
2022-10-19T12:08:16.113Z,99374.47
2022-10-19T12:11:01.121Z,99367.13
2022-10-19T12:13:38.141Z,99366.44
2022-10-19T12:16:06.775Z,99362.47
2022-10-19T12:18:42.519Z,99360.16
2022-10-19T12:21:33.187Z,99365.78
2022-10-19T12:24:04.115Z,99350.88
2022-10-19T12:26:35.950Z,99354.19
2022-10-19T12:29:16.004Z,99347.41
2022-10-19T12:31:43.358Z,99331.75
2022-10-19T12:34:37.132Z,99349.53
2022-10-19T12:37:17.162Z,99343.03
2022-10-19T12:40:23.452Z,99350.19
2022-10-19T12:43:19.012Z,99334.97
2022-10-19T12:45:51.706Z,99335.84
2022-10-19T12:48:21.081Z,99332.38
2022-10-19T12:50:50.483Z,99334.03
2022-10-19T12:53:40.464Z,99300.16
2022-10-19T12:56:09.745Z,99327.69
2022-10-19T12:58:46.663Z,99330.84
2022-10-19T13:01:24.647Z,99323.75
2022-10-19T13:04:06.836Z,99331.69
2022-10-19T13:06:36.583Z,99321.47
2022-10-19T13:09:06.669Z,99321.97
2022-10-19T13:14:26.122Z,99315.00
2022-10-19T13:17:00.484Z,99310.53
2022-10-19T13:19:27.826Z,99280.13
2022-10-19T13:22:00.368Z,99307.25
2022-10-19T13:24:27.108Z,99305.28
2022-10-19T13:26:59.807Z,99300.28
2022-10-19T13:29:39.746Z,99304.22
2022-10-19T13:32:42.166Z,99299.22
2022-10-19T13:35:26.583Z,99299.06
2022-10-19T13:38:17.702Z,99295.81
2022-10-19T13:40:47.101Z,99298.50
2022-10-19T13:43:19.794Z,99262.16
2022-10-19T13:45:59.726Z,99294.47
2022-10-19T13:49:04.210Z,99295.31
2022-10-19T13:52:08.311Z,99290.84
2022-10-19T13:54:53.053Z,99303.66
2022-10-19T13:57:28.452Z,99282.78
2022-10-19T14:00:18.426Z,99293.47
2022-10-19T14:03:22.728Z,99302.19
2022-10-19T14:06:17.376Z,99301.84
2022-10-19T14:09:19.725Z,99290.75
2022-10-19T14:11:51.184Z,99262.13
2022-10-19T14:14:19.515Z,99296.91
2022-10-19T14:17:01.363Z,99289.97
2022-10-19T14:19:44.296Z,99299.25
2022-10-19T14:22:27.225Z,99304.72
2022-10-19T14:25:02.153Z,99300.25
2022-10-19T14:27:35.013Z,99265.13
2022-10-19T14:30:02.065Z,99257.06
2022-10-19T14:32:29.550Z,99299.16
2022-10-19T14:37:31.747Z,99298.47
2022-10-19T14:40:26.567Z,99290.50
2022-10-19T14:42:56.892Z,99287.88
2022-10-19T14:45:29.632Z,99292.81
2022-10-19T14:48:06.396Z,99278.81
2022-10-19T14:50:53.957Z,99264.31
2022-10-19T14:53:48.153Z,99279.16
2022-10-19T14:56:21.890Z,99273.06
2022-10-19T14:59:31.259Z,99268.47
2022-10-19T15:02:00.952Z,99271.41
2022-10-19T15:04:34.370Z,99271.41
2022-10-19T15:07:04.664Z,99253.28
2022-10-19T15:09:48.038Z,99221.28
2022-10-19T15:12:20.372Z,99228.19
2022-10-19T15:14:47.875Z,99244.34
2022-10-19T15:17:29.508Z,99261.66
2022-10-19T15:19:58.462Z,99261.50
2022-10-19T15:22:31.131Z,99256.84
2022-10-19T15:25:06.635Z,99251.41
2022-10-19T15:27:39.799Z,99249.25
2022-10-19T15:30:29.487Z,99253.38
2022-10-19T15:33:10.190Z,99246.41
2022-10-19T15:35:39.364Z,99246.88
2022-10-19T15:38:20.614Z,99239.09
2022-10-19T15:40:48.072Z,99244.06
2022-10-19T15:43:37.845Z,99242.59
2022-10-19T15:46:06.957Z,99210.25
2022-10-19T15:48:42.650Z,99236.28
2022-10-19T15:51:27.333Z,99243.47
2022-10-19T15:53:57.911Z,99243.78
2022-10-19T15:56:27.544Z,99248.28
2022-10-19T15:58:58.001Z,99242.09
2022-10-19T16:01:38.838Z,99248.44
2022-10-19T16:04:05.710Z,99248.31
2022-10-19T16:06:34.662Z,99242.13
2022-10-19T16:09:01.778Z,99248.47
2022-10-19T16:11:29.966Z,99204.81
2022-10-19T16:13:56.620Z,99241.72
2022-10-19T16:16:29.138Z,99242.03
2022-10-19T16:18:56.617Z,99244.81
2022-10-19T16:21:28.643Z,99247.59
2022-10-19T16:23:55.669Z,99241.34
2022-10-19T16:26:22.395Z,99237.00
2022-10-19T16:28:49.241Z,99236.50
2022-10-19T16:31:17.382Z,99239.88
2022-10-19T16:33:44.480Z,99228.94
2022-10-19T16:36:11.648Z,99236.50
2022-10-19T16:38:38.753Z,99238.38
2022-10-19T16:41:10.535Z,99232.91
2022-10-19T16:43:38.079Z,99241.53
2022-10-19T16:46:05.986Z,99240.09
2022-10-19T16:48:33.057Z,99242.50
2022-10-19T16:51:05.298Z,99241.09
2022-10-19T16:53:32.413Z,99240.72
2022-10-19T16:56:07.638Z,99242.06
2022-10-19T16:58:34.812Z,99248.72
2022-10-19T17:01:10.546Z,99254.91
2022-10-19T17:03:37.581Z,99249.63
2022-10-19T17:06:08.797Z,99250.59
2022-10-19T17:09:02.386Z,99247.63
2022-10-19T17:11:25.970Z,99252.25
2022-10-19T17:13:55.288Z,99215.44
2022-10-19T17:16:23.507Z,99251.84
2022-10-19T17:18:51.246Z,99248.78
2022-10-19T17:21:21.262Z,99246.16
2022-10-19T17:23:52.273Z,99254.41
2022-10-19T17:26:24.314Z,99250.84
2022-10-19T17:28:50.877Z,99251.00
2022-10-19T17:31:17.802Z,99247.28
2022-10-19T17:33:44.501Z,99247.50
2022-10-19T17:36:14.518Z,99216.97
2022-10-19T17:38:41.507Z,99259.03
2022-10-19T17:41:11.142Z,99237.34
2022-10-19T17:43:39.660Z,99255.50
2022-10-19T17:46:09.311Z,99257.09
2022-10-19T17:48:37.471Z,99249.53
2022-10-19T17:51:07.357Z,99240.69
2022-10-19T17:53:35.962Z,99246.97
2022-10-19T17:56:06.027Z,99243.25
2022-10-19T17:58:36.316Z,99241.97
2022-10-19T18:01:08.102Z,99244.69
2022-10-19T18:03:37.191Z,99238.59
2022-10-19T18:06:09.880Z,99239.00
2022-10-19T18:08:40.943Z,99241.16
2022-10-19T18:11:11.517Z,99243.19
2022-10-19T18:13:39.622Z,99242.13
2022-10-19T18:16:13.601Z,99247.00
2022-10-19T18:18:44.150Z,99242.28
2022-10-19T18:21:14.873Z,99248.22
2022-10-19T18:23:43.350Z,99234.09
2022-10-19T18:26:16.509Z,99256.75
2022-10-19T18:28:46.525Z,99250.56
2022-10-19T18:31:16.735Z,99262.13
2022-10-19T18:33:43.613Z,99261.00
2022-10-19T18:36:12.328Z,99259.34
2022-10-19T18:38:40.001Z,99260.03
2022-10-19T18:41:10.784Z,99263.25
2022-10-19T18:43:41.779Z,99250.94
2022-10-19T18:46:09.155Z,99248.38
2022-10-19T18:48:38.599Z,99257.69
2022-10-19T18:51:07.790Z,99210.47
2022-10-19T18:53:34.587Z,99191.31
2022-10-19T18:56:06.639Z,99195.56
2022-10-19T18:58:34.322Z,99196.31
2022-10-19T19:01:19.207Z,99224.66
2022-10-19T19:03:47.945Z,99224.16
2022-10-19T19:06:24.947Z,99217.16
2022-10-19T19:08:54.964Z,99206.75
2022-10-19T19:11:27.662Z,99209.72
2022-10-19T19:13:58.485Z,99203.34
2022-10-19T19:16:26.671Z,99204.81
2022-10-19T19:18:54.664Z,99195.97
2022-10-19T19:21:23.675Z,99198.50
2022-10-19T19:23:51.874Z,99198.44
2022-10-19T19:26:20.471Z,99191.78
2022-10-19T19:28:49.306Z,99203.22
2022-10-19T19:31:19.091Z,99198.78
2022-10-19T19:33:46.948Z,99189.25
2022-10-19T19:36:15.734Z,99194.75
2022-10-19T19:38:42.557Z,99186.59
2022-10-19T19:41:12.106Z,99185.41
2022-10-19T19:43:39.309Z,99186.25
2022-10-19T19:46:09.206Z,99186.06
2022-10-19T19:48:37.187Z,99185.19
2022-10-19T19:51:04.882Z,99181.63
2022-10-19T19:53:31.441Z,99177.28
2022-10-19T19:55:58.057Z,99179.84
2022-10-19T19:58:24.954Z,99182.63
2022-10-19T20:00:51.545Z,99182.63
2022-10-19T20:03:18.108Z,99157.84
2022-10-19T20:05:44.688Z,99175.25
2022-10-19T20:08:11.292Z,99158.44
2022-10-19T20:10:42.807Z,99178.25
2022-10-19T20:13:09.837Z,99178.50
2022-10-19T20:15:39.243Z,99185.09
2022-10-19T20:18:06.324Z,99176.25
2022-10-19T20:20:33.032Z,99173.03
2022-10-19T20:22:59.647Z,99172.66
2022-10-19T20:25:26.178Z,99177.66
2022-10-19T20:27:52.807Z,99167.09
2022-10-19T20:30:19.419Z,99165.34
2022-10-19T20:32:45.934Z,99169.41
2022-10-19T20:35:12.815Z,99168.03
2022-10-19T20:37:39.374Z,99168.19
2022-10-19T20:40:08.769Z,99171.19
2022-10-19T20:42:36.533Z,99179.69
2022-10-19T20:45:03.807Z,99178.72
2022-10-19T20:47:30.405Z,99174.97
2022-10-19T20:49:56.988Z,99166.25
2022-10-19T20:52:23.607Z,99173.88
2022-10-19T20:54:50.110Z,99176.34
2022-10-19T20:57:16.882Z,99175.34
2022-10-19T20:59:43.376Z,99163.63
2022-10-19T21:02:10.696Z,99154.81
2022-10-19T21:04:37.496Z,99165.09
2022-10-19T21:07:04.128Z,99155.97
2022-10-19T21:09:30.788Z,99168.69
2022-10-19T21:11:57.654Z,99167.22
2022-10-19T21:14:28.383Z,99169.78
2022-10-19T21:16:59.480Z,99164.78
2022-10-19T21:19:28.926Z,99162.13
2022-10-19T21:21:58.799Z,99166.00
2022-10-19T21:24:28.649Z,99164.50
2022-10-19T21:26:55.283Z,99163.53
2022-10-19T21:29:21.838Z,99159.84
2022-10-19T21:31:50.178Z,99164.00
2022-10-19T21:34:20.071Z,99169.09
2022-10-19T21:36:46.992Z,99160.13
2022-10-19T21:39:13.647Z,99160.69
2022-10-19T21:41:40.355Z,99149.84
2022-10-19T21:44:07.219Z,99143.53
2022-10-19T21:46:34.050Z,99145.50
2022-10-19T21:49:00.545Z,99137.81
2022-10-19T21:51:48.016Z,99129.81
2022-10-19T21:54:17.056Z,99125.00
2022-10-19T21:56:44.353Z,99120.28
2022-10-19T21:59:11.833Z,99116.56
2022-10-19T22:01:41.755Z,99117.00
2022-10-19T22:04:13.035Z,99116.69
2022-10-19T22:06:39.966Z,99084.97
2022-10-19T22:09:08.610Z,99128.94
2022-10-19T22:11:35.643Z,99124.22
2022-10-19T22:14:03.667Z,99132.03
2022-10-19T22:16:31.207Z,99120.34
2022-10-19T22:18:58.593Z,99124.72
2022-10-19T22:21:31.216Z,99124.13
2022-10-19T22:24:06.807Z,99115.72
2022-10-19T22:26:36.590Z,99110.16
2022-10-19T22:29:04.674Z,99111.69
2022-10-19T22:31:32.301Z,99110.19
2022-10-19T22:34:07.169Z,99100.88
2022-10-19T22:36:34.490Z,99102.59
2022-10-19T22:39:01.022Z,99107.78
2022-10-19T22:41:27.906Z,99104.88
2022-10-19T22:43:54.481Z,99106.00
2022-10-19T22:46:21.079Z,99100.19
2022-10-19T22:48:47.571Z,99059.56
2022-10-19T22:51:14.171Z,99081.59
2022-10-19T22:53:40.708Z,99091.81
2022-10-19T22:56:07.770Z,99076.50
2022-10-19T22:58:34.481Z,99084.66
2022-10-19T23:01:10.068Z,99086.03
2022-10-19T23:03:37.514Z,99075.00
2022-10-19T23:06:04.018Z,99075.84
2022-10-19T23:08:30.869Z,99066.47
2022-10-19T23:10:57.538Z,99063.16
2022-10-19T23:13:24.357Z,99052.81
2022-10-19T23:15:50.861Z,99067.56
2022-10-19T23:18:17.848Z,99052.41
2022-10-19T23:20:56.161Z,99062.88
2022-10-19T23:23:23.172Z,99057.75
2022-10-19T23:26:01.911Z,99056.91
2022-10-19T23:28:29.381Z,99051.81
2022-10-19T23:30:57.907Z,99044.97
2022-10-19T23:33:25.945Z,99049.66
2022-10-19T23:35:53.019Z,99053.25
2022-10-19T23:38:20.053Z,99053.06
2022-10-19T23:40:47.083Z,99042.22
2022-10-19T23:43:14.504Z,99044.00
2022-10-19T23:45:41.385Z,99043.03
2022-10-19T23:48:08.430Z,99043.72
2022-10-19T23:50:35.809Z,99035.84
2022-10-19T23:53:02.791Z,99042.50
2022-10-19T23:55:29.320Z,99042.47
2022-10-19T23:57:55.958Z,99030.06
